createdAt,value
2023-02-22T00:02:13.345Z,3.30
2023-02-22T00:04:41.646Z,3.50
2023-02-22T00:07:09.915Z,3.80
2023-02-22T00:09:46.944Z,3.50
2023-02-22T00:12:14.958Z,2.80
2023-02-22T00:14:43.004Z,3.30
2023-02-22T00:17:13.628Z,3.60
2023-02-22T00:19:41.911Z,3.90
2023-02-22T00:22:10.094Z,3.40
2023-02-22T00:24:38.047Z,3.30
2023-02-22T00:27:06.065Z,3.10
2023-02-22T00:29:34.728Z,3.60
2023-02-22T00:32:05.448Z,3.10
2023-02-22T00:34:36.087Z,4.50
2023-02-22T00:37:04.553Z,3.00
2023-02-22T00:39:32.947Z,3.40
2023-02-22T00:42:01.088Z,2.90
2023-02-22T00:44:30.860Z,3.10
2023-02-22T00:46:59.194Z,3.90
2023-02-22T00:49:27.120Z,3.80
2023-02-22T00:51:55.336Z,3.50
2023-02-22T00:54:23.522Z,4.30
2023-02-22T00:56:51.359Z,3.30
2023-02-22T00:59:19.406Z,3.80
2023-02-22T01:01:47.829Z,3.30
2023-02-22T01:04:23.251Z,4.00
2023-02-22T01:06:51.218Z,5.10
2023-02-22T01:09:22.077Z,3.00
2023-02-22T01:11:55.447Z,3.20
2023-02-22T01:14:27.879Z,4.20
2023-02-22T01:16:56.717Z,4.00
2023-02-22T01:19:25.373Z,4.60
2023-02-22T01:21:54.727Z,4.80
2023-02-22T01:24:25.276Z,4.10
2023-02-22T01:27:17.824Z,5.20
2023-02-22T01:32:40.088Z,4.30
2023-02-22T01:35:43.529Z,4.50
2023-02-22T01:38:37.119Z,3.90
2023-02-22T01:41:28.464Z,3.70
2023-02-22T01:44:24.897Z,4.10
2023-02-22T01:46:52.959Z,4.70
2023-02-22T01:49:21.432Z,4.00
2023-02-22T01:51:53.300Z,4.00
2023-02-22T01:54:25.161Z,4.00
2023-02-22T01:59:33.239Z,3.70
2023-02-22T02:02:07.555Z,5.50
2023-02-22T02:04:36.503Z,4.80
2023-02-22T02:07:06.384Z,5.60
2023-02-22T02:09:57.011Z,5.10
2023-02-22T02:12:26.287Z,4.00
2023-02-22T02:14:54.464Z,4.40
2023-02-22T02:17:23.561Z,4.20
2023-02-22T02:20:16.517Z,4.80
2023-02-22T02:22:49.253Z,4.00
2023-02-22T02:25:43.085Z,3.80
2023-02-22T02:28:14.260Z,5.10
2023-02-22T02:30:50.783Z,4.10
2023-02-22T02:33:38.938Z,3.90
2023-02-22T02:36:18.172Z,4.20
2023-02-22T02:38:55.649Z,4.40
2023-02-22T02:41:47.892Z,4.60
2023-02-22T02:44:20.160Z,3.80
2023-02-22T02:47:03.743Z,4.00
2023-02-22T02:49:35.900Z,4.30
2023-02-22T02:52:07.325Z,4.70
2023-02-22T02:54:37.339Z,5.60
2023-02-22T02:57:05.736Z,5.20
2023-02-22T02:59:39.307Z,4.20
2023-02-22T03:02:12.911Z,5.00
2023-02-22T03:04:54.268Z,4.40
2023-02-22T03:07:40.962Z,4.20
2023-02-22T03:10:09.162Z,4.20
2023-02-22T03:12:37.281Z,4.40
2023-02-22T03:15:14.702Z,3.20
2023-02-22T03:17:45.616Z,3.40
2023-02-22T03:20:13.751Z,4.30
2023-02-22T03:22:53.308Z,4.20
2023-02-22T03:25:43.538Z,4.10
2023-02-22T03:28:17.321Z,4.20
2023-02-22T03:30:49.101Z,4.70
2023-02-22T03:33:24.430Z,3.90
2023-02-22T03:36:01.316Z,4.20
2023-02-22T03:38:33.466Z,3.70
2023-02-22T03:41:02.464Z,3.80
2023-02-22T03:43:40.228Z,4.00
2023-02-22T03:46:12.644Z,4.40
2023-02-22T03:48:50.249Z,3.40
2023-02-22T03:51:19.034Z,4.10
2023-02-22T03:53:49.772Z,3.00
2023-02-22T03:56:21.127Z,4.20
2023-02-22T03:58:49.607Z,4.70
2023-02-22T04:01:20.080Z,5.10
2023-02-22T04:03:48.310Z,5.90
2023-02-22T04:06:17.446Z,6.60
2023-02-22T04:08:46.270Z,7.60
2023-02-22T04:11:15.093Z,5.70
2023-02-22T04:13:43.809Z,5.40
2023-02-22T04:16:12.322Z,4.70
2023-02-22T04:18:44.050Z,5.70
2023-02-22T04:21:15.081Z,4.40
2023-02-22T04:23:47.442Z,4.60
2023-02-22T04:26:15.349Z,6.30
2023-02-22T04:28:49.257Z,7.20
2023-02-22T04:31:20.187Z,7.40
2023-02-22T04:33:48.317Z,8.50
2023-02-22T04:36:22.411Z,7.20
2023-02-22T04:39:00.842Z,6.80
2023-02-22T04:41:31.622Z,5.80
2023-02-22T04:44:02.046Z,5.00
2023-02-22T04:46:33.927Z,5.90
2023-02-22T04:49:02.781Z,5.30
2023-02-22T04:51:38.744Z,6.40
2023-02-22T04:54:09.260Z,5.80
2023-02-22T04:56:39.650Z,6.70
2023-02-22T04:59:08.096Z,6.30
2023-02-22T05:01:39.062Z,6.40
2023-02-22T05:04:08.006Z,7.10
2023-02-22T05:06:36.001Z,7.80
2023-02-22T05:09:04.078Z,7.20
2023-02-22T05:11:32.409Z,9.70
2023-02-22T05:14:00.631Z,12.30
2023-02-22T05:16:28.678Z,30.30
2023-02-22T05:19:16.892Z,25.80
2023-02-22T05:21:44.943Z,64.80
2023-02-22T05:24:15.211Z,33.20
2023-02-22T05:26:46.403Z,17.50
2023-02-22T05:29:14.736Z,7.80
2023-02-22T05:31:43.052Z,5.60
2023-02-22T05:34:14.568Z,4.90
2023-02-22T05:36:48.189Z,10.60
2023-02-22T05:39:16.348Z,7.90
2023-02-22T05:41:44.360Z,6.90
2023-02-22T05:44:12.566Z,5.80
2023-02-22T05:46:40.663Z,5.60
2023-02-22T05:49:08.827Z,6.50
2023-02-22T05:51:36.654Z,6.30
2023-02-22T05:54:04.628Z,6.30
2023-02-22T05:56:32.582Z,7.40
2023-02-22T05:59:00.585Z,8.80
2023-02-22T06:01:28.498Z,9.00
2023-02-22T06:03:56.586Z,12.70
2023-02-22T06:06:33.382Z,24.40
2023-02-22T06:12:28.339Z,32.70
2023-02-22T06:14:56.468Z,27.60
2023-02-22T06:17:24.589Z,20.90
2023-02-22T06:19:54.778Z,17.80
2023-02-22T06:22:30.194Z,18.20
2023-02-22T06:24:58.186Z,14.10
2023-02-22T06:27:30.646Z,11.50
2023-02-22T06:29:59.274Z,10.70
2023-02-22T06:32:27.818Z,11.70
2023-02-22T06:34:55.871Z,15.70
2023-02-22T06:37:24.029Z,16.40
2023-02-22T06:39:55.422Z,21.60
2023-02-22T06:42:28.780Z,24.80
2023-02-22T06:45:06.157Z,19.60
2023-02-22T06:47:40.082Z,17.50
2023-02-22T06:50:09.251Z,17.80
2023-02-22T06:52:44.697Z,16.70
2023-02-22T06:55:16.177Z,15.00
2023-02-22T07:00:22.827Z,16.70
2023-02-22T07:03:11.194Z,10.50
2023-02-22T07:05:42.164Z,15.40
2023-02-22T07:08:12.505Z,13.40
2023-02-22T07:10:41.054Z,14.10
2023-02-22T07:13:11.530Z,12.50
2023-02-22T07:15:42.085Z,12.10
2023-02-22T07:18:28.956Z,12.10
2023-02-22T07:20:58.841Z,10.30
2023-02-22T07:23:27.239Z,11.30
2023-02-22T07:25:58.257Z,13.00
2023-02-22T07:28:26.285Z,12.90
2023-02-22T07:30:54.377Z,14.00
2023-02-22T07:33:22.547Z,12.50
2023-02-22T07:35:51.276Z,7.90
2023-02-22T07:38:20.585Z,9.00
2023-02-22T07:40:51.265Z,8.20
2023-02-22T07:43:20.472Z,10.80
2023-02-22T07:45:54.606Z,6.30
2023-02-22T07:48:23.666Z,6.80
2023-02-22T07:50:54.325Z,6.90
2023-02-22T07:53:24.531Z,6.20
2023-02-22T07:55:52.948Z,5.50
2023-02-22T07:58:22.415Z,18.70
2023-02-22T08:00:54.018Z,19.30
2023-02-22T08:03:26.463Z,19.40
2023-02-22T08:05:56.969Z,10.70
2023-02-22T08:08:25.115Z,6.30
2023-02-22T08:10:53.221Z,5.30
2023-02-22T08:13:22.410Z,5.20
2023-02-22T08:15:52.261Z,6.60
2023-02-22T08:18:23.084Z,5.90
2023-02-22T08:20:52.228Z,5.30
2023-02-22T08:23:22.544Z,20.10
2023-02-22T08:25:50.962Z,28.70
2023-02-22T08:28:23.602Z,9.40
2023-02-22T08:30:52.392Z,17.50
2023-02-22T08:33:20.735Z,22.30
2023-02-22T08:35:49.806Z,11.60
2023-02-22T08:38:38.456Z,10.60
2023-02-22T08:41:07.037Z,5.40
2023-02-22T08:43:35.119Z,8.00
2023-02-22T08:46:03.129Z,7.10
2023-02-22T08:48:31.112Z,14.80
2023-02-22T08:50:59.316Z,7.80
2023-02-22T08:53:32.920Z,19.10
2023-02-22T08:56:04.249Z,6.10
2023-02-22T08:58:35.225Z,13.70
2023-02-22T09:01:03.479Z,4.80
2023-02-22T09:03:52.014Z,4.20
2023-02-22T09:06:20.154Z,17.70
2023-02-22T09:08:48.489Z,16.30
2023-02-22T09:11:17.043Z,8.40
2023-02-22T09:13:45.343Z,4.80
2023-02-22T09:16:13.781Z,5.80
2023-02-22T09:18:44.344Z,12.60
2023-02-22T09:21:15.990Z,31.00
2023-02-22T09:23:46.719Z,9.80
2023-02-22T09:26:18.058Z,7.00
2023-02-22T09:28:46.297Z,5.90
2023-02-22T09:31:15.019Z,13.30
2023-02-22T09:33:47.478Z,4.70
2023-02-22T09:36:39.662Z,4.90
2023-02-22T09:39:26.439Z,4.30
2023-02-22T09:42:06.737Z,4.20
2023-02-22T09:44:48.199Z,6.00
2023-02-22T09:47:41.751Z,3.90
2023-02-22T09:50:16.559Z,4.80
2023-02-22T09:52:54.117Z,3.90
2023-02-22T09:55:34.180Z,3.60
2023-02-22T09:58:22.468Z,4.20
2023-02-22T10:00:53.956Z,3.60
2023-02-22T10:03:34.750Z,4.10
2023-02-22T10:06:10.693Z,4.00
2023-02-22T10:08:41.746Z,3.80
2023-02-22T10:11:18.610Z,4.80
2023-02-22T10:13:46.984Z,18.40
2023-02-22T10:16:21.525Z,6.80
2023-02-22T10:19:04.428Z,7.30
2023-02-22T10:21:32.491Z,7.00
2023-02-22T10:24:04.519Z,14.70
2023-02-22T10:26:34.795Z,15.10
2023-02-22T10:29:32.759Z,10.60
2023-02-22T10:32:03.527Z,10.30
2023-02-22T10:34:39.937Z,5.70
2023-02-22T10:37:26.583Z,5.30
2023-02-22T10:40:06.235Z,12.30
2023-02-22T10:42:34.090Z,16.10
2023-02-22T10:45:02.000Z,58.20
2023-02-22T10:47:30.018Z,12.00
2023-02-22T10:50:00.613Z,7.90
2023-02-22T10:52:33.966Z,7.20
2023-02-22T10:55:15.682Z,8.20
2023-02-22T10:57:49.815Z,4.90
2023-02-22T11:00:29.237Z,5.10
2023-02-22T11:03:04.792Z,12.70
2023-02-22T11:05:37.304Z,48.00
2023-02-22T11:11:29.399Z,5.90
2023-02-22T11:14:06.897Z,8.20
2023-02-22T11:16:38.517Z,12.40
2023-02-22T11:19:12.845Z,16.00
2023-02-22T11:21:47.196Z,14.70
2023-02-22T11:26:46.207Z,9.80
2023-02-22T11:29:27.641Z,5.70
2023-02-22T11:32:25.955Z,5.40
2023-02-22T11:35:08.652Z,5.80
2023-02-22T11:37:39.840Z,9.10
2023-02-22T11:40:22.634Z,8.70
2023-02-22T11:43:12.404Z,10.90
2023-02-22T11:45:58.974Z,8.70
2023-02-22T11:48:32.471Z,10.60
2023-02-22T11:51:26.360Z,7.00
2023-02-22T11:54:06.829Z,5.80
2023-02-22T11:56:45.087Z,6.50
2023-02-22T11:59:22.599Z,5.90
2023-02-22T12:01:53.712Z,4.70
2023-02-22T12:04:34.696Z,7.60
2023-02-22T12:07:02.934Z,7.70
2023-02-22T12:09:35.455Z,6.70
2023-02-22T12:12:15.927Z,4.70
2023-02-22T12:14:59.229Z,5.40
2023-02-22T12:17:31.068Z,10.20
2023-02-22T12:20:10.052Z,4.40
2023-02-22T12:22:40.343Z,8.30
2023-02-22T12:25:20.038Z,7.20
2023-02-22T12:27:56.153Z,6.70
2023-02-22T12:30:29.470Z,5.00
2023-02-22T12:33:10.465Z,5.90
2023-02-22T12:35:42.670Z,7.20
2023-02-22T12:38:23.402Z,5.10
2023-02-22T12:41:20.837Z,4.70
2023-02-22T12:43:53.766Z,5.30
2023-02-22T12:46:24.303Z,4.40
2023-02-22T12:48:57.704Z,5.00
2023-02-22T12:51:48.950Z,8.90
2023-02-22T12:54:29.580Z,4.60
2023-02-22T12:57:01.336Z,4.70
2023-02-22T12:59:32.868Z,5.90
2023-02-22T13:02:09.984Z,6.40
2023-02-22T13:04:38.142Z,5.90
2023-02-22T13:07:18.315Z,5.00
2023-02-22T13:10:00.328Z,6.00
2023-02-22T13:12:37.584Z,5.70
2023-02-22T13:15:28.791Z,5.70
2023-02-22T13:20:51.830Z,7.00
2023-02-22T13:23:20.261Z,4.80
2023-02-22T13:25:51.137Z,9.40
2023-02-22T13:31:10.882Z,6.90
2023-02-22T13:34:02.917Z,7.50
2023-02-22T13:36:43.409Z,6.10
2023-02-22T13:39:20.321Z,5.40
2023-02-22T13:41:55.281Z,6.00
2023-02-22T13:44:41.876Z,7.40
2023-02-22T13:47:24.956Z,4.60
2023-02-22T13:50:08.410Z,5.80
2023-02-22T13:52:38.961Z,7.40
2023-02-22T13:55:16.418Z,5.70
2023-02-22T13:57:49.743Z,5.50
2023-02-22T14:00:20.935Z,5.50
2023-02-22T14:03:09.038Z,5.70
2023-02-22T14:05:44.658Z,5.50
2023-02-22T14:08:22.458Z,4.20
2023-02-22T14:10:50.835Z,4.90
2023-02-22T14:13:22.470Z,6.20
2023-02-22T14:16:00.267Z,5.20
2023-02-22T14:18:35.988Z,6.30
2023-02-22T14:21:08.687Z,5.60
2023-02-22T14:23:40.769Z,5.20
2023-02-22T14:26:12.166Z,5.50
2023-02-22T14:28:43.158Z,6.80
2023-02-22T14:31:33.230Z,6.80
2023-02-22T14:34:06.125Z,7.20
2023-02-22T14:36:37.280Z,6.00
2023-02-22T14:39:08.976Z,6.90
2023-02-22T14:41:38.207Z,6.50
2023-02-22T14:44:12.995Z,10.40
2023-02-22T14:46:42.710Z,7.20
2023-02-22T14:49:16.922Z,6.30
2023-02-22T14:51:50.547Z,10.10
2023-02-22T14:54:31.887Z,7.20
2023-02-22T14:57:14.962Z,8.00
2023-02-22T14:59:48.317Z,7.60
2023-02-22T15:02:18.803Z,7.40
2023-02-22T15:04:57.011Z,10.50
2023-02-22T15:07:29.735Z,9.00
2023-02-22T15:10:17.664Z,14.80
2023-02-22T15:12:53.687Z,56.60
2023-02-22T15:15:23.385Z,64.30
2023-02-22T15:18:00.152Z,14.60
2023-02-22T15:20:38.327Z,12.60
2023-02-22T15:23:06.403Z,20.30
2023-02-22T15:25:37.651Z,25.00
2023-02-22T15:28:09.591Z,23.90
2023-02-22T15:30:40.137Z,41.80
2023-02-22T15:33:16.762Z,27.50
2023-02-22T15:35:45.116Z,19.60
2023-02-22T15:38:13.197Z,21.30
2023-02-22T15:40:43.425Z,24.20
2023-02-22T15:43:25.152Z,26.70
2023-02-22T15:45:56.575Z,22.10
2023-02-22T15:48:26.906Z,18.70
2023-02-22T15:51:07.144Z,29.80
2023-02-22T15:53:37.459Z,32.50
2023-02-22T15:56:09.190Z,15.70
2023-02-22T15:58:39.266Z,11.10
2023-02-22T16:01:09.167Z,5.90
2023-02-22T16:03:45.501Z,14.80
2023-02-22T16:06:36.137Z,7.40
2023-02-22T16:09:26.053Z,9.20
2023-02-22T16:12:10.746Z,8.40
2023-02-22T16:14:38.914Z,8.00
2023-02-22T16:17:29.724Z,10.40
2023-02-22T16:20:19.136Z,17.30
2023-02-22T16:22:51.098Z,28.50
2023-02-22T16:25:19.394Z,29.60
2023-02-22T16:27:48.936Z,39.50
2023-02-22T16:30:25.228Z,26.30
2023-02-22T16:32:57.274Z,17.00
2023-02-22T16:35:29.410Z,23.80
2023-02-22T16:38:01.860Z,29.10
2023-02-22T16:40:46.744Z,19.30
2023-02-22T16:43:17.683Z,34.40
2023-02-22T16:48:19.080Z,37.00
2023-02-22T16:50:57.479Z,30.20
2023-02-22T16:53:28.719Z,31.80
2023-02-22T16:58:32.774Z,47.50
2023-02-22T17:01:00.799Z,35.30
2023-02-22T17:03:29.628Z,35.30
2023-02-22T17:05:57.665Z,34.80
2023-02-22T17:08:25.717Z,33.00
2023-02-22T17:10:56.814Z,39.70
2023-02-22T17:13:27.325Z,39.40
2023-02-22T17:16:11.424Z,42.50
2023-02-22T17:18:39.429Z,38.10
2023-02-22T17:21:07.682Z,29.40
2023-02-22T17:23:35.520Z,34.50
2023-02-22T17:26:03.968Z,21.60
2023-02-22T17:28:32.048Z,18.60
2023-02-22T17:31:01.609Z,20.30
2023-02-22T17:33:33.042Z,20.90
2023-02-22T17:36:04.999Z,17.10
2023-02-22T17:38:34.619Z,28.50
2023-02-22T17:41:03.446Z,21.30
2023-02-22T17:43:31.955Z,22.40
2023-02-22T17:46:08.991Z,17.60
2023-02-22T17:48:50.755Z,21.70
2023-02-22T17:51:19.189Z,23.90
2023-02-22T17:54:09.397Z,16.40
2023-02-22T17:56:47.842Z,18.30
2023-02-22T17:59:15.895Z,18.60
2023-02-22T18:01:44.117Z,17.40
2023-02-22T18:04:12.350Z,16.30
2023-02-22T18:07:00.826Z,20.30
2023-02-22T18:09:29.900Z,21.80
2023-02-22T18:11:58.235Z,19.50
2023-02-22T18:14:38.494Z,22.20
2023-02-22T18:17:14.169Z,19.80
2023-02-22T18:19:42.255Z,27.70
2023-02-22T18:22:10.887Z,27.10
2023-02-22T18:24:38.939Z,26.50
2023-02-22T18:27:07.674Z,23.30
2023-02-22T18:29:35.834Z,23.00
2023-02-22T18:32:12.622Z,29.50
2023-02-22T18:34:47.023Z,28.20
2023-02-22T18:37:20.401Z,27.00
2023-02-22T18:39:59.564Z,21.50
2023-02-22T18:42:28.440Z,26.40
2023-02-22T18:45:03.320Z,24.90
2023-02-22T18:47:32.272Z,26.30
2023-02-22T18:50:00.514Z,23.40
2023-02-22T18:52:31.084Z,24.10
2023-02-22T18:55:00.156Z,20.10
2023-02-22T18:57:31.545Z,22.90
2023-02-22T18:59:59.767Z,17.10
2023-02-22T19:02:28.071Z,17.50
2023-02-22T19:04:57.796Z,18.60
2023-02-22T19:07:26.351Z,21.40
2023-02-22T19:09:54.575Z,20.10
2023-02-22T19:12:27.183Z,19.30
2023-02-22T19:14:55.441Z,18.60
2023-02-22T19:17:24.725Z,17.60
2023-02-22T19:19:56.057Z,17.70
2023-02-22T19:22:26.389Z,17.20
2023-02-22T19:24:54.932Z,25.50
2023-02-22T19:27:35.717Z,22.50
2023-02-22T19:30:04.670Z,14.90
2023-02-22T19:32:33.661Z,13.40
2023-02-22T19:35:07.038Z,14.40
2023-02-22T19:37:36.606Z,15.40
2023-02-22T19:40:09.683Z,17.80
2023-02-22T19:42:37.993Z,17.30
2023-02-22T19:45:08.839Z,25.20
2023-02-22T19:50:08.984Z,14.50
2023-02-22T19:52:39.471Z,17.40
2023-02-22T19:55:14.547Z,13.90
2023-02-22T19:57:47.332Z,13.30
2023-02-22T20:00:24.162Z,15.30
2023-02-22T20:03:05.825Z,13.40
2023-02-22T20:05:37.224Z,16.00
2023-02-22T20:10:35.655Z,11.50
2023-02-22T20:13:07.110Z,12.40
2023-02-22T20:15:35.125Z,11.20
2023-02-22T20:18:03.458Z,10.90
2023-02-22T20:20:33.613Z,9.40
2023-02-22T20:23:01.571Z,9.30
2023-02-22T20:25:29.662Z,8.60
2023-02-22T20:28:00.801Z,10.10
2023-02-22T20:32:57.032Z,9.20
2023-02-22T20:35:25.580Z,14.20
2023-02-22T20:37:53.416Z,9.60
2023-02-22T20:40:21.418Z,11.10
2023-02-22T20:42:49.572Z,13.30
2023-02-22T20:45:20.069Z,15.70
2023-02-22T20:47:50.383Z,14.80
2023-02-22T20:50:18.537Z,14.00
2023-02-22T20:52:46.613Z,15.30
2023-02-22T20:55:14.849Z,13.40
2023-02-22T20:57:42.785Z,16.50
2023-02-22T21:00:11.412Z,16.00
2023-02-22T21:02:39.431Z,14.20
2023-02-22T21:05:07.371Z,11.80
2023-02-22T21:07:35.366Z,10.60
2023-02-22T21:10:06.071Z,10.40
2023-02-22T21:12:34.885Z,9.50
2023-02-22T21:15:02.997Z,10.20
2023-02-22T21:17:30.949Z,12.60
2023-02-22T21:19:58.913Z,11.20
2023-02-22T21:22:26.981Z,12.40
2023-02-22T21:24:54.950Z,11.30
2023-02-22T21:27:23.027Z,12.60
2023-02-22T21:29:51.445Z,14.40
2023-02-22T21:32:19.871Z,14.60
2023-02-22T21:34:47.953Z,12.30
2023-02-22T21:37:18.246Z,14.20
2023-02-22T21:39:47.753Z,15.40
2023-02-22T21:42:15.864Z,16.00
2023-02-22T21:44:43.713Z,15.30
2023-02-22T21:47:11.699Z,14.30
2023-02-22T21:49:39.732Z,16.00
2023-02-22T21:52:08.165Z,17.70
2023-02-22T21:54:36.150Z,17.40
2023-02-22T21:57:06.432Z,17.50
2023-02-22T21:59:34.901Z,18.00
2023-02-22T22:02:03.025Z,20.90
2023-02-22T22:04:31.854Z,20.10
2023-02-22T22:07:14.194Z,13.80
2023-02-22T22:09:43.319Z,15.90
2023-02-22T22:12:14.389Z,19.30
2023-02-22T22:14:43.064Z,18.50
2023-02-22T22:17:11.310Z,13.50
2023-02-22T22:19:39.469Z,16.60
2023-02-22T22:22:08.020Z,15.90
2023-02-22T22:24:36.361Z,11.70
2023-02-22T22:27:06.619Z,14.30
2023-02-22T22:29:34.799Z,15.80
2023-02-22T22:32:03.581Z,13.90
2023-02-22T22:34:34.336Z,13.20
2023-02-22T22:37:03.072Z,13.30
2023-02-22T22:39:31.164Z,14.70
2023-02-22T22:41:59.187Z,14.10
2023-02-22T22:44:32.786Z,16.20
2023-02-22T22:47:01.015Z,15.20
2023-02-22T22:49:31.379Z,14.70
2023-02-22T22:51:59.608Z,13.70
2023-02-22T22:54:28.867Z,13.60
2023-02-22T22:56:59.835Z,16.00
2023-02-22T22:59:28.007Z,13.70
2023-02-22T23:01:56.699Z,13.00
2023-02-22T23:04:25.679Z,14.20
2023-02-22T23:06:54.231Z,13.90
2023-02-22T23:09:25.213Z,13.80
2023-02-22T23:12:09.063Z,13.80
2023-02-22T23:14:39.116Z,12.90
2023-02-22T23:17:14.310Z,19.10
2023-02-22T23:19:44.839Z,17.40
2023-02-22T23:22:21.248Z,16.30
2023-02-22T23:24:49.416Z,25.60
2023-02-22T23:27:19.017Z,18.30
2023-02-22T23:29:49.993Z,18.10
2023-02-22T23:32:17.957Z,19.40
2023-02-22T23:34:49.609Z,21.00
2023-02-22T23:37:20.673Z,18.60
2023-02-22T23:52:37.571Z,19.10
2023-02-22T23:55:05.927Z,20.30
2023-02-22T23:57:36.914Z,18.00
